旭川空港の過去48時間の天気

旭川空港 (Asahikawa (Civil))

現在時刻: 9/23 09:10 JST (9/23 00:10 UTC) 以下の時間は現地時間です。

過去48時間のMETAR気象情報
時間 風向 風速(m/s) 視程 気温(℃) 湿度(%) 気圧(hPa) 天気現象
23 08:00 南東 4 10km以上 20 83 1009
23 07:00 2 10km以上 17 94 1008 弱いしゅう雨
23 06:40 東南東 2 10km以上 17 94 1008 弱いしゅう雨
22 20:00 5 10km以上 19 88 1007
22 19:00 5 10km以上 20 83 1006
22 18:00 5 10km以上 20 83 1006
22 17:00 7 10km以上 20 83 1006
22 16:00 6 10km以上 20 83 1006
22 15:00 6 10km以上 20 88 1006 弱いしゅう雨
22 14:00 南南東 7 10km以上 20 88 1007 弱いしゅう雨
22 13:00 不定 1 10km以上 17 88 1008 弱いしゅう雨
22 12:00 北東 2 10km以上 18 83 1007 弱いしゅう雨
22 11:00 北北東 2 10km以上 17 83 1007 周辺でしゅう雨
22 10:00 3 10km以上 17 83 1008 周辺でしゅう雨
22 09:00 南南西 3 10km以上 20 68 1007
22 08:00 西 2 10km以上 17 88 1008
22 07:00 不定 1 10km以上 15 88 1009
22 06:40 西南西 2 10km以上 14 88 1009
21 20:00 東南東 3 10km以上 13 88 1014
21 19:00 2 10km以上 14 88 1014
21 18:00 2 10km以上 16 77 1014
21 17:00 南西 2 10km以上 19 68 1014
21 16:00 南南西 3 10km以上 20 64 1013
21 15:00 6 10km以上 20 60 1013 弱いしゅう雨
21 14:00 6 10km以上 21 56 1014
21 13:00 南南西 3 10km以上 21 56 1015
21 12:00 3 10km以上 22 53 1016
21 11:00 西北西 2 10km以上 20 56 1016
21 10:00 不定 1 10km以上 18 64 1017
RJEC 222300Z 14007KT 120V180 9999 FEW003 SCT025 BKN050 20/17 Q1009
RJEC 222200Z 17004KT 9999 -SHRA FEW002 SCT025 FEW025CB BKN050 17/16 Q1008
RJEC 222140Z 11004KT 090V150 9999 -SHRA FEW003 SCT025 FEW025CB BKN050 17/16 Q1008 RMK 1ST003 3CU025 1CB025 5CU050 A2978 CB 10KM S MOV E
RJEC 221100Z 17009KT 9999 FEW015 SCT040 BKN140 19/17 Q1007
RJEC 221000Z 18010KT 9999 FEW010 SCT040 BKN160 20/17 Q1006
RJEC 220900Z 19010KT 9999 FEW010 SCT050 BKN080 20/17 Q1006
RJEC 220800Z 19013KT 9999 FEW003 SCT080 BKN140 20/17 Q1006
RJEC 220700Z 19012KT 160V220 9999 FEW001 SCT120 BKN140 20/17 Q1006
RJEC 220600Z 19011KT 9999 -SHRA FEW005 SCT035 BKN100 20/18 Q1006
RJEC 220500Z 16013KT 9999 -SHRA FEW005 SCT025 BKN100 20/18 Q1007
RJEC 220400Z VRB01KT 9999 -SHRA FEW003 SCT020 BKN045 17/15 Q1008
RJEC 220300Z 05003KT 360V110 9999 -SHRA FEW002 SCT045 BKN070 18/15 Q1007
RJEC 220200Z 03004KT 9999 VCSH FEW015 SCT045 BKN070 17/14 Q1007
RJEC 220100Z 36006KT 9999 VCSH FEW020 SCT050 BKN070 17/14 Q1008
RJEC 220000Z 20005KT 140V280 9999 FEW030 SCT050 BKN160 20/14 Q1007
RJEC 212300Z 27003KT 250V320 9999 FEW030 SCT050 BKN/// 17/15 Q1008
RJEC 212200Z VRB01KT 9999 FEW020 SCT040 BKN/// 15/13 Q1009
RJEC 212140Z 24004KT 210V270 9999 FEW020 SCT040 BKN/// 14/12 Q1009 RMK 1CU020 3CU040 A2980
RJEC 211100Z 12005KT 9999 FEW020 BKN170 13/11 Q1014
RJEC 211000Z 17004KT 9999 FEW020 SCT130 BKN/// 14/12 Q1014
RJEC 210900Z 17004KT 9999 FEW020 SCT140 BKN/// 16/12 Q1014
RJEC 210800Z 22004KT 180V250 9999 FEW020 SCT100 BKN150 19/13 Q1014
RJEC 210700Z 21005KT 180V250 9999 FEW020 SCT080 BKN150 20/13 Q1013
RJEC 210600Z 18012KT 9999 -SHRA FEW020 SCT080 BKN120 20/12 Q1013
RJEC 210500Z 17011KT 140V210 9999 FEW020 SCT120 BKN140 21/12 Q1014
RJEC 210400Z 20005KT 170V240 9999 FEW020 SCT130 BKN150 21/12 Q1015
RJEC 210300Z VRB05KT 9999 FEW020 SCT130 BKN/// 22/12 Q1016
RJEC 210200Z 29004KT 250V330 9999 FEW020 BKN130 20/11 Q1016
RJEC 210100Z VRB02KT 9999 FEW020 BKN130 18/11 Q1017